createdAt,value
2022-08-03T00:03:46.745Z,4.60
2022-08-03T00:08:40.659Z,4.90
2022-08-03T00:13:33.486Z,4.90
2022-08-03T00:18:26.105Z,4.90
2022-08-03T00:23:18.643Z,5.30
2022-08-03T00:28:13.040Z,5.40
2022-08-03T00:33:06.023Z,5.30
2022-08-03T00:38:00.919Z,5.33
2022-08-03T00:42:54.621Z,5.07
2022-08-03T00:47:49.573Z,5.10
2022-08-03T00:52:42.360Z,5.30
2022-08-03T00:57:34.921Z,5.43
2022-08-03T01:02:27.804Z,5.40
2022-08-03T01:07:24.317Z,5.13
2022-08-03T01:12:23.334Z,5.67
2022-08-03T01:17:19.613Z,5.60
2022-08-03T01:22:19.044Z,5.90
2022-08-03T01:27:15.870Z,6.30
2022-08-03T01:32:53.470Z,6.30
2022-08-03T01:37:27.554Z,6.00
2022-08-03T01:42:20.895Z,6.17
2022-08-03T01:47:17.212Z,5.87
2022-08-03T01:52:10.040Z,6.37
2022-08-03T01:57:03.591Z,6.33
2022-08-03T02:02:27.810Z,6.40
2022-08-03T02:07:11.425Z,5.90
2022-08-03T02:12:04.628Z,6.27
2022-08-03T02:16:57.794Z,6.50
2022-08-03T02:21:56.426Z,6.83
2022-08-03T02:26:56.585Z,7.10
2022-08-03T02:31:50.228Z,7.23
2022-08-03T02:36:45.292Z,6.70
2022-08-03T02:41:39.217Z,7.33
2022-08-03T02:46:35.102Z,6.80
2022-08-03T02:51:29.523Z,7.53
2022-08-03T02:56:23.405Z,6.93
2022-08-03T03:01:16.097Z,6.73
2022-08-03T03:06:10.158Z,7.07
2022-08-03T03:11:02.842Z,7.50
2022-08-03T03:15:56.136Z,7.30
2022-08-03T03:20:50.348Z,7.33
2022-08-03T03:25:44.552Z,8.07
2022-08-03T03:30:37.238Z,8.07
2022-08-03T03:35:29.844Z,7.90
2022-08-03T03:40:22.577Z,7.23
2022-08-03T03:45:17.257Z,8.50
2022-08-03T03:50:10.902Z,8.37
2022-08-03T03:55:03.439Z,8.37
2022-08-03T03:59:56.044Z,8.07
2022-08-03T04:05:07.582Z,8.00
2022-08-03T04:10:17.756Z,8.33
2022-08-03T04:15:11.421Z,7.60
2022-08-03T04:20:05.873Z,7.33
2022-08-03T04:25:01.221Z,8.20
2022-08-03T04:29:54.983Z,8.30
2022-08-03T04:34:48.006Z,7.50
2022-08-03T04:39:43.240Z,8.30
2022-08-03T04:44:37.624Z,6.93
2022-08-03T04:49:30.915Z,7.27
2022-08-03T04:54:23.441Z,6.97
2022-08-03T04:59:17.908Z,6.27
2022-08-03T05:04:10.498Z,6.60
2022-08-03T05:09:03.003Z,7.30
2022-08-03T05:13:56.712Z,7.63
2022-08-03T05:18:50.582Z,7.53
2022-08-03T05:23:43.357Z,7.03
2022-08-03T05:28:35.874Z,7.70
2022-08-03T05:33:28.678Z,8.90
2022-08-03T05:38:23.912Z,9.07
2022-08-03T05:43:21.799Z,9.13
2022-08-03T05:48:14.310Z,9.73
2022-08-03T05:53:06.814Z,9.20
2022-08-03T05:58:02.504Z,9.30
2022-08-03T06:02:55.040Z,9.10
2022-08-03T06:07:47.764Z,9.40
2022-08-03T06:12:41.350Z,9.50
2022-08-03T06:17:37.603Z,9.73
2022-08-03T06:22:30.287Z,8.80
2022-08-03T06:27:36.454Z,8.83
2022-08-03T06:32:29.951Z,8.77
2022-08-03T06:37:24.570Z,9.50
2022-08-03T06:42:17.387Z,9.10
2022-08-03T06:47:10.052Z,9.23
2022-08-03T06:52:06.454Z,8.67
2022-08-03T06:57:16.808Z,7.67
2022-08-03T07:02:09.972Z,7.30
2022-08-03T07:07:02.658Z,6.63
2022-08-03T07:11:55.211Z,6.93
2022-08-03T07:16:49.137Z,7.10
2022-08-03T07:21:41.639Z,7.03
2022-08-03T07:26:34.152Z,6.50
2022-08-03T07:31:26.623Z,6.23
2022-08-03T07:36:20.498Z,5.90
2022-08-03T07:41:13.002Z,6.47
2022-08-03T07:46:05.516Z,7.30
2022-08-03T07:50:59.095Z,6.60
2022-08-03T07:55:52.940Z,7.67
2022-08-03T08:00:45.667Z,7.00
2022-08-03T08:05:38.248Z,6.73
2022-08-03T08:10:30.797Z,6.80
2022-08-03T08:15:24.619Z,6.17
2022-08-03T08:20:22.465Z,6.60
2022-08-03T08:25:21.243Z,5.53
2022-08-03T08:30:18.753Z,6.40
2022-08-03T08:35:13.284Z,6.00
2022-08-03T08:40:06.344Z,5.50
2022-08-03T08:44:59.051Z,5.70
2022-08-03T08:50:08.946Z,5.70
2022-08-03T08:55:05.010Z,5.00
2022-08-03T08:59:57.939Z,5.87
2022-08-03T09:04:50.494Z,5.50
2022-08-03T09:10:11.766Z,5.20
2022-08-03T09:15:15.850Z,5.07
2022-08-03T09:20:09.935Z,5.00
2022-08-03T09:25:23.486Z,4.80
2022-08-03T09:30:34.723Z,4.73
2022-08-03T09:35:51.754Z,5.17
2022-08-03T09:40:41.186Z,5.40
2022-08-03T09:45:35.397Z,5.20
2022-08-03T09:50:28.050Z,4.90
2022-08-03T09:55:23.853Z,4.73
2022-08-03T10:00:54.025Z,4.33
2022-08-03T10:05:46.810Z,4.70
2022-08-03T10:10:43.266Z,4.70
2022-08-03T10:16:24.945Z,4.70
2022-08-03T10:20:52.593Z,4.70
2022-08-03T10:25:47.650Z,4.00
2022-08-03T10:30:42.081Z,3.47
2022-08-03T10:35:35.067Z,3.73
2022-08-03T10:45:42.892Z,3.60
2022-08-03T10:50:35.675Z,4.17
2022-08-03T10:55:48.854Z,4.00
2022-08-03T11:00:51.277Z,3.70
2022-08-03T11:05:44.446Z,3.93
2022-08-03T11:10:36.987Z,3.40
2022-08-03T11:15:33.464Z,3.10
2022-08-03T11:20:40.879Z,3.50
2022-08-03T11:26:01.386Z,3.63
2022-08-03T11:30:55.250Z,3.43
2022-08-03T11:35:59.407Z,2.87
2022-08-03T11:40:52.844Z,3.00
2022-08-03T11:45:57.491Z,2.90
2022-08-03T11:50:51.356Z,3.00
2022-08-03T11:55:44.396Z,2.83
2022-08-03T12:00:36.903Z,3.17
2022-08-03T12:05:52.007Z,3.20
2022-08-03T12:10:51.044Z,3.17
2022-08-03T12:15:43.589Z,2.80
2022-08-03T12:20:36.076Z,3.10
2022-08-03T12:25:39.580Z,2.93
2022-08-03T12:30:34.665Z,2.87
2022-08-03T12:35:27.181Z,2.90
2022-08-03T12:40:28.174Z,3.07
2022-08-03T12:45:25.096Z,2.80
2022-08-03T12:50:25.988Z,2.87
2022-08-03T12:55:20.598Z,2.90
2022-08-03T13:00:28.978Z,2.60
2022-08-03T13:05:22.316Z,3.07
2022-08-03T13:10:28.256Z,2.77
2022-08-03T13:15:20.982Z,2.50
2022-08-03T13:20:13.601Z,2.80
2022-08-03T13:25:06.633Z,2.83
2022-08-03T13:30:00.481Z,3.00
2022-08-03T13:34:53.044Z,2.70
2022-08-03T13:39:58.433Z,2.40
2022-08-03T13:44:52.582Z,2.47
2022-08-03T13:50:00.002Z,2.80
2022-08-03T13:54:54.582Z,2.50
2022-08-03T13:59:47.133Z,3.00
2022-08-03T14:04:39.668Z,2.70
2022-08-03T14:09:33.549Z,2.80
2022-08-03T14:14:26.066Z,2.83
2022-08-03T14:19:18.889Z,2.87
2022-08-03T14:24:17.523Z,2.90
2022-08-03T14:29:11.399Z,2.40
2022-08-03T14:34:03.949Z,3.83
2022-08-03T14:39:01.012Z,2.80
2022-08-03T14:44:01.346Z,2.60
2022-08-03T14:50:30.491Z,2.50
2022-08-03T14:54:08.789Z,3.00
2022-08-03T14:59:01.300Z,3.20
2022-08-03T15:03:53.841Z,2.70
2022-08-03T15:09:20.861Z,2.57
2022-08-03T15:14:05.045Z,2.90
2022-08-03T15:19:01.593Z,2.70
2022-08-03T15:23:58.852Z,2.47
2022-08-03T15:28:51.408Z,2.57
2022-08-03T15:33:44.098Z,2.67
2022-08-03T15:38:36.626Z,2.90
2022-08-03T15:43:30.506Z,2.87
2022-08-03T15:48:26.462Z,3.07
2022-08-03T15:53:19.282Z,2.83
2022-08-03T15:59:10.362Z,2.80
2022-08-03T16:03:25.705Z,2.50
2022-08-03T16:08:18.431Z,3.07
2022-08-03T16:13:10.995Z,2.77
2022-08-03T16:18:03.558Z,2.80
2022-08-03T16:22:57.570Z,2.50
2022-08-03T16:28:00.510Z,2.93
2022-08-03T16:33:00.153Z,2.67
2022-08-03T16:37:56.851Z,2.97
2022-08-03T16:42:50.929Z,2.60
2022-08-03T16:47:43.470Z,2.77
2022-08-03T16:52:36.826Z,2.70
2022-08-03T16:57:58.982Z,2.63
2022-08-03T17:02:48.439Z,2.80
2022-08-03T17:07:41.679Z,3.20
2022-08-03T17:12:39.617Z,2.80
2022-08-03T17:17:37.564Z,2.80
2022-08-03T17:22:48.351Z,2.67
2022-08-03T17:28:51.103Z,2.80
2022-08-03T17:32:57.845Z,2.90
2022-08-03T17:38:02.647Z,2.80
2022-08-03T17:42:56.897Z,2.80
2022-08-03T17:47:57.149Z,3.00
2022-08-03T17:52:52.268Z,3.10
2022-08-03T17:58:01.307Z,2.90
2022-08-03T18:03:18.073Z,2.70
2022-08-03T18:08:12.834Z,3.03
2022-08-03T18:13:10.420Z,3.30
2022-08-03T18:18:10.582Z,3.03
2022-08-03T18:23:04.826Z,2.90
2022-08-03T18:27:59.649Z,3.37
2022-08-03T18:33:00.426Z,3.07
2022-08-03T18:37:54.594Z,3.30
2022-08-03T18:42:52.752Z,3.20
2022-08-03T18:47:53.318Z,4.30
2022-08-03T18:52:52.840Z,3.50
2022-08-03T18:57:49.678Z,3.40
2022-08-03T19:02:49.275Z,3.30
2022-08-03T19:07:45.185Z,3.40
2022-08-03T19:12:51.859Z,3.73
2022-08-03T19:17:52.688Z,3.57
2022-08-03T19:22:48.329Z,3.40
2022-08-03T19:27:41.127Z,3.47
2022-08-03T19:32:36.568Z,4.00
2022-08-03T19:37:38.364Z,3.47
2022-08-03T19:42:35.396Z,3.83
2022-08-03T19:47:30.215Z,3.37
2022-08-03T19:52:24.354Z,4.07
2022-08-03T19:57:24.938Z,3.80
2022-08-03T20:02:26.497Z,4.10
2022-08-03T20:12:39.025Z,3.80
2022-08-03T20:17:55.030Z,4.67
2022-08-03T20:22:48.005Z,4.03
2022-08-03T20:28:07.748Z,3.73
2022-08-03T20:32:58.246Z,4.20
2022-08-03T20:37:51.044Z,3.93
2022-08-03T20:42:43.591Z,3.97
2022-08-03T20:47:36.473Z,4.47
2022-08-03T20:52:49.299Z,4.23
2022-08-03T20:57:43.199Z,4.43
2022-08-03T21:02:41.792Z,4.50
2022-08-03T21:08:04.139Z,4.80
2022-08-03T21:12:51.823Z,4.83
2022-08-03T21:13:03.562Z,3.93
2022-08-03T21:17:46.854Z,4.80
2022-08-03T21:22:44.044Z,4.80
2022-08-03T21:27:37.676Z,4.50
2022-08-03T21:32:32.647Z,4.80
2022-08-03T21:37:26.273Z,5.00
2022-08-03T21:42:21.119Z,5.07
2022-08-03T21:47:14.215Z,4.80
2022-08-03T21:52:07.357Z,5.30
2022-08-03T21:57:04.053Z,4.70
2022-08-03T22:01:58.767Z,4.60
2022-08-03T22:06:51.826Z,4.67
2022-08-03T22:11:45.015Z,4.47
2022-08-03T22:16:37.583Z,4.63
2022-08-03T22:21:36.033Z,4.40
2022-08-03T22:26:32.462Z,4.80
2022-08-03T22:31:56.886Z,5.07
2022-08-03T22:36:41.843Z,4.87
2022-08-03T22:41:34.361Z,4.77
2022-08-03T22:46:27.227Z,4.50
2022-08-03T22:51:20.597Z,4.70
2022-08-03T22:56:14.935Z,4.40
2022-08-03T23:01:08.106Z,4.70
2022-08-03T23:06:03.641Z,4.70
2022-08-03T23:11:00.181Z,4.57
2022-08-03T23:15:56.137Z,4.63
2022-08-03T23:20:50.760Z,4.50
2022-08-03T23:25:43.353Z,4.20
2022-08-03T23:30:38.101Z,4.80
2022-08-03T23:36:29.898Z,4.70
2022-08-03T23:41:05.322Z,4.83
2022-08-03T23:45:58.649Z,4.73
2022-08-03T23:50:57.766Z,4.90
2022-08-03T23:55:57.248Z,4.73
